This is the latest recevied weather packets stored in our database for station/object MMMX. If no packets are shown the sender has not sent any weather packets the latest 10 day(s).
| Time | Temp. | Humidity | Pressure | Rain* | Wind** | Luminosity | Snow |
|---|---|---|---|---|---|---|---|
| 1777875820 | 16.67° C | 72% | 1028.4 hPa | - | - | - | - |
| 1777875221 | 16.67° C | 72% | 1028.4 hPa | - | - | - | - |
| 1777874624 | 16.67° C | 72% | 1028.4 hPa | - | - | - | - |
| 1777874019 | 15.56° C | 82% | 1028.4 hPa | - | - | - | - |
| 1777873421 | 15.56° C | 82% | 1028.4 hPa | - | - | - | - |
| 1777872820 | 15.56° C | 82% | 1028.4 hPa | - | - | - | - |
| 1777872224 | 15.56° C | 82% | 1028.4 hPa | - | - | - | - |
| 1777871619 | 15.56° C | 82% | 1028.4 hPa | - | - | - | - |
| 1777871021 | 15.56° C | 82% | 1028.4 hPa | - | - | - | - |
| 1777870421 | 15.56° C | 77% | 1028.4 hPa | - | - | - | - |
| 1777869818 | 15.56° C | 77% | 1028.4 hPa | - | - | - | - |
| 1777869220 | 15.56° C | 77% | 1028.4 hPa | - | - | - | - |
| 1777868620 | 15.56° C | 77% | 1028.4 hPa | - | - | - | - |
| 1777868021 | 15.56° C | 77% | 1028.4 hPa | - | - | - | - |
| 1777867549 | 15.56° C | 77% | 1028.4 hPa | - | - | - | - |
| 1777866822 | 15° C | 82% | 1028.1 hPa | - | - | - | - |
| 1777865624 | 15° C | 82% | 1028.1 hPa | - | - | - | - |
| 1777845227 | 25.56° C | 31% | 1023.4 hPa | - | - | - | - |
| 1777844027 | 25.56° C | 34% | 1023.7 hPa | - | - | - | - |
| 1777842827 | 25° C | 36% | 1023.7 hPa | - | - | - | - |
| 1777842228 | 25.56° C | 31% | 1024 hPa | - | - | - | - |
| 1777841626 | 25.56° C | 31% | 1024 hPa | - | - | - | - |
| 1777840423 | 26.67° C | 30% | 1025.4 hPa | - | - | - | - |
| 1777839828 | 26.67° C | 30% | 1025.4 hPa | - | - | - | - |
| 1777833230 | 25° C | 38% | 1027.4 hPa | - | - | - | - |
* Rain since midnight (hover to see other rain measurements)
** Current wind speed in m/s (hover to see current wind gust speed)